Time;durP1;ratioP1;P1;durP2;ratioP2;P2;SDS_P1;SDS_P2;PMS_P1;PMS_P2;Temp;Humidity;BMP_temperature;BMP_pressure;BME280_temperature;BME280_humidity;BME280_pressure;Samples;Min_cycle;Max_cycle;Signal;HPM_P1;HPM_P2
2022/07/13 00:00:46;;;;;;;10.30;4.25;;;;;;;;;;5027968;28;20084;-77
2022/07/13 00:03:13;;;;;;;4.90;3.67;;;;;;;;;;5027194;28;20088;-77
2022/07/13 00:05:41;;;;;;;9.25;4.15;;;;;;;;;;5029566;28;20053;-77
2022/07/13 00:08:08;;;;;;;5.13;3.83;;;;;;;;;;5032468;28;20045;-77
2022/07/13 00:10:35;;;;;;;5.43;3.70;;;;;;;;;;5032125;28;20068;-77
2022/07/13 00:13:02;;;;;;;6.93;4.20;;;;;;;;;;5031916;28;20127;-77
2022/07/13 00:15:30;;;;;;;5.50;4.00;;;;;;;;;;5030558;28;20784;-77
2022/07/13 00:17:57;;;;;;;5.97;3.63;;;;;;;;;;5030319;28;20145;-77
2022/07/13 00:20:27;;;;;;;5.43;3.38;;;;;;;;;;5031437;28;20050;-77
2022/07/13 00:22:55;;;;;;;4.75;3.65;;;;;;;;;;5030232;28;20045;-77
2022/07/13 00:25:23;;;;;;;11.63;3.80;;;;;;;;;;5031297;28;20418;-77
2022/07/13 00:27:50;;;;;;;7.88;3.65;;;;;;;;;;5030776;28;20731;-77
2022/07/13 00:30:18;;;;;;;4.90;3.30;;;;;;;;;;5031392;28;20080;-77
2022/07/13 00:32:45;;;;;;;5.57;3.40;;;;;;;;;;5030349;28;20088;-77
2022/07/13 00:35:12;;;;;;;7.97;3.75;;;;;;;;;;5030037;28;20776;-77
2022/07/13 00:37:40;;;;;;;4.50;3.13;;;;;;;;;;5031079;28;20104;-77
2022/07/13 00:40:07;;;;;;;6.63;3.55;;;;;;;;;;5031155;28;20141;-77
2022/07/13 00:42:34;;;;;;;6.25;3.10;;;;;;;;;;5029892;28;20056;-77
2022/07/13 00:45:02;;;;;;;4.85;3.30;;;;;;;;;;5027589;28;20045;-77
2022/07/13 00:47:34;;;;;;;5.18;3.30;;;;;;;;;;5030859;28;20053;-78
2022/07/13 00:50:02;;;;;;;5.72;3.47;;;;;;;;;;5031097;28;20092;-78
2022/07/13 00:52:30;;;;;;;7.80;3.50;;;;;;;;;;5030031;28;20466;-77
2022/07/13 00:54:58;;;;;;;6.00;3.35;;;;;;;;;;5030257;28;20045;-77
2022/07/13 00:57:26;;;;;;;5.85;3.20;;;;;;;;;;5030841;28;20107;-78
2022/07/13 01:03:07;;;;;;;6.25;3.58;;;;;;;;;;5028902;28;20617;-77
2022/07/13 01:05:34;;;;;;;4.57;3.10;;;;;;;;;;5030899;28;20088;-76
2022/07/13 01:08:05;;;;;;;5.40;3.28;;;;;;;;;;5030855;28;20144;-77
2022/07/13 01:10:32;;;;;;;4.65;3.03;;;;;;;;;;5029491;28;20049;-77
2022/07/13 01:13:00;;;;;;;6.40;3.50;;;;;;;;;;5030661;28;20180;-77
2022/07/13 01:15:27;;;;;;;8.48;3.53;;;;;;;;;;5029780;28;20049;-77
2022/07/13 01:17:55;;;;;;;7.10;3.55;;;;;;;;;;5029378;28;20085;-77
2022/07/13 01:20:23;;;;;;;7.30;3.63;;;;;;;;;;5029707;28;20144;-77
2022/07/13 01:22:52;;;;;;;4.88;3.42;;;;;;;;;;5029635;28;20581;-77
2022/07/13 01:25:20;;;;;;;6.03;3.22;;;;;;;;;;5030935;28;20053;-77
2022/07/13 01:27:48;;;;;;;3.35;2.78;;;;;;;;;;5029165;28;20045;-77
2022/07/13 01:30:16;;;;;;;3.60;2.70;;;;;;;;;;5027752;28;20085;-77
2022/07/13 01:32:44;;;;;;;5.15;3.22;;;;;;;;;;5029636;28;20450;-76
2022/07/13 01:35:11;;;;;;;10.55;3.05;;;;;;;;;;5030946;28;20061;-76
2022/07/13 01:37:39;;;;;;;5.03;3.30;;;;;;;;;;5030452;28;20104;-76
2022/07/13 01:40:07;;;;;;;5.43;2.95;;;;;;;;;;5030225;28;20132;-76
2022/07/13 01:42:44;;;;;;;5.10;3.10;;;;;;;;;;5029625;28;20832;-76
2022/07/13 01:45:12;;;;;;;4.78;3.00;;;;;;;;;;5028176;28;20076;-76
2022/07/13 01:47:47;;;;;;;4.03;2.67;;;;;;;;;;5028482;28;20268;-76
2022/07/13 01:50:15;;;;;;;6.50;2.60;;;;;;;;;;5028097;28;20046;-76
2022/07/13 01:52:42;;;;;;;4.70;3.13;;;;;;;;;;5030056;28;20129;-76
2022/07/13 01:55:10;;;;;;;7.57;2.97;;;;;;;;;;5029684;28;20084;-76
2022/07/13 01:57:38;;;;;;;3.88;3.00;;;;;;;;;;5029979;28;20084;-76
2022/07/13 02:00:09;;;;;;;7.18;3.20;;;;;;;;;;5029226;28;20092;-76
2022/07/13 02:02:36;;;;;;;5.72;3.28;;;;;;;;;;5027572;28;20089;-76
2022/07/13 02:05:04;;;;;;;6.28;3.00;;;;;;;;;;5028640;28;20136;-76
2022/07/13 02:07:31;;;;;;;3.33;2.22;;;;;;;;;;5029305;28;20088;-76
2022/07/13 02:09:58;;;;;;;4.40;3.00;;;;;;;;;;5029370;28;20139;-76
2022/07/13 02:12:26;;;;;;;11.35;3.22;;;;;;;;;;5028108;28;20043;-76
2022/07/13 02:14:53;;;;;;;4.82;2.70;;;;;;;;;;5029332;28;20140;-76
2022/07/13 02:17:20;;;;;;;4.88;2.85;;;;;;;;;;5028509;28;20244;-76
2022/07/13 02:19:48;;;;;;;4.57;2.80;;;;;;;;;;5029601;28;20136;-76
2022/07/13 02:22:15;;;;;;;6.97;2.97;;;;;;;;;;5027404;28;20084;-76
2022/07/13 02:24:42;;;;;;;9.30;2.95;;;;;;;;;;5028901;28;20578;-76
2022/07/13 02:27:09;;;;;;;5.18;2.72;;;;;;;;;;5028104;28;20081;-76
2022/07/13 02:29:37;;;;;;;3.55;2.63;;;;;;;;;;5027512;28;20069;-76
2022/07/13 02:32:06;;;;;;;5.30;2.90;;;;;;;;;;5028291;28;20672;-76
2022/07/13 02:34:33;;;;;;;6.00;3.38;;;;;;;;;;5028640;28;20101;-76
2022/07/13 02:37:00;;;;;;;5.57;2.35;;;;;;;;;;5028866;28;20088;-76
2022/07/13 02:39:28;;;;;;;4.47;2.70;;;;;;;;;;5029956;28;20080;-76
2022/07/13 02:41:55;;;;;;;3.28;2.28;;;;;;;;;;5029916;28;20550;-77
2022/07/13 02:44:22;;;;;;;2.85;2.17;;;;;;;;;;5028405;28;20636;-76
2022/07/13 02:46:49;;;;;;;2.60;2.15;;;;;;;;;;5029300;28;20082;-76
2022/07/13 02:49:17;;;;;;;6.30;2.30;;;;;;;;;;5029925;28;20100;-77
2022/07/13 02:51:44;;;;;;;2.70;1.95;;;;;;;;;;5028875;28;20049;-76
2022/07/13 02:54:11;;;;;;;6.55;2.00;;;;;;;;;;5028422;28;20482;-76
2022/07/13 02:56:39;;;;;;;3.85;2.47;;;;;;;;;;5028504;28;20132;-76
2022/07/13 02:59:06;;;;;;;5.13;2.03;;;;;;;;;;5030311;28;20139;-76
2022/07/13 03:01:33;;;;;;;5.03;1.85;;;;;;;;;;5027799;28;20041;-77
2022/07/13 03:04:01;;;;;;;2.97;1.60;;;;;;;;;;5028544;28;20063;-77
2022/07/13 03:06:28;;;;;;;3.47;1.77;;;;;;;;;;5028637;28;20064;-76
2022/07/13 03:08:55;;;;;;;3.38;2.20;;;;;;;;;;5023282;28;20163;-76
2022/07/13 03:11:23;;;;;;;2.25;1.60;;;;;;;;;;5022973;28;20081;-76
2022/07/13 03:13:50;;;;;;;4.50;1.80;;;;;;;;;;5028252;28;20138;-76
2022/07/13 03:16:17;;;;;;;3.38;1.55;;;;;;;;;;5028000;28;20100;-76
2022/07/13 03:18:44;;;;;;;2.60;1.75;;;;;;;;;;5029646;28;20053;-76
2022/07/13 03:21:12;;;;;;;4.13;2.17;;;;;;;;;;5027816;28;20049;-76
2022/07/13 03:26:40;;;;;;;2.00;1.45;;;;;;;;;;5088180;22;20050;-82
2022/07/13 03:29:09;;;;;;;5.15;2.08;;;;;;;;;;5013795;28;20119;-81
2022/07/13 03:31:36;;;;;;;3.10;1.95;;;;;;;;;;5009142;28;20093;-82
2022/07/13 03:34:03;;;;;;;6.32;2.53;;;;;;;;;;5008379;28;20180;-81
2022/07/13 03:36:31;;;;;;;15.50;8.80;;;;;;;;;;5013473;28;20133;-81
2022/07/13 03:38:58;;;;;;;12.07;7.85;;;;;;;;;;5014995;28;20096;-81
2022/07/13 03:41:27;;;;;;;14.90;7.13;;;;;;;;;;5013492;28;20494;-82
2022/07/13 03:43:54;;;;;;;17.00;10.13;;;;;;;;;;5049553;28;20091;-82
2022/07/13 03:46:22;;;;;;;12.23;7.75;;;;;;;;;;5034388;28;20136;-83
2022/07/13 03:48:49;;;;;;;9.80;4.75;;;;;;;;;;5034005;28;20054;-81
2022/07/13 03:51:16;;;;;;;5.35;3.33;;;;;;;;;;5034097;28;20135;-82
2022/07/13 03:53:44;;;;;;;5.82;2.90;;;;;;;;;;5033996;28;20045;-82
2022/07/13 03:56:11;;;;;;;2.70;2.17;;;;;;;;;;5031950;28;20053;-82
2022/07/13 03:58:38;;;;;;;4.72;2.83;;;;;;;;;;5032856;28;20145;-81
2022/07/13 04:01:06;;;;;;;14.13;2.80;;;;;;;;;;5034362;28;20148;-82
2022/07/13 04:03:33;;;;;;;4.45;2.28;;;;;;;;;;5032844;28;20077;-82
2022/07/13 04:06:00;;;;;;;4.68;2.10;;;;;;;;;;5032516;28;20054;-82
2022/07/13 04:08:28;;;;;;;3.38;2.05;;;;;;;;;;5031383;28;20665;-82
2022/07/13 04:10:55;;;;;;;2.85;2.05;;;;;;;;;;5013822;28;20700;-81
2022/07/13 04:13:22;;;;;;;4.30;2.50;;;;;;;;;;5012892;28;20463;-82
2022/07/13 04:15:49;;;;;;;8.27;1.90;;;;;;;;;;5013032;28;20077;-82
2022/07/13 04:18:17;;;;;;;2.28;1.80;;;;;;;;;;5013825;28;20053;-82
2022/07/13 04:20:44;;;;;;;2.95;2.10;;;;;;;;;;5013483;28;20108;-82
2022/07/13 04:23:11;;;;;;;7.30;2.45;;;;;;;;;;5013609;28;20138;-82
2022/07/13 04:25:38;;;;;;;6.28;2.15;;;;;;;;;;5012086;28;20944;-82
2022/07/13 04:28:06;;;;;;;4.60;2.42;;;;;;;;;;5013278;28;20137;-82
2022/07/13 04:30:33;;;;;;;3.67;2.20;;;;;;;;;;5012285;28;20479;-82
2022/07/13 04:33:01;;;;;;;5.95;2.45;;;;;;;;;;5012521;28;20136;-82
2022/07/13 04:35:28;;;;;;;4.07;2.30;;;;;;;;;;5012668;28;20132;-83
2022/07/13 04:37:55;;;;;;;7.43;2.35;;;;;;;;;;5012831;28;20129;-82
2022/07/13 04:40:22;;;;;;;3.85;2.30;;;;;;;;;;5012399;28;20084;-82
2022/07/13 04:42:50;;;;;;;2.97;2.38;;;;;;;;;;5010638;28;20781;-82
2022/07/13 04:45:20;;;;;;;2.95;2.17;;;;;;;;;;5010302;28;20064;-82
2022/07/13 04:47:48;;;;;;;6.15;2.78;;;;;;;;;;5006117;28;20137;-82
2022/07/13 04:50:16;;;;;;;2.63;2.05;;;;;;;;;;5022180;28;20110;-82
2022/07/13 04:52:44;;;;;;;2.95;2.10;;;;;;;;;;5032930;28;20563;-83
2022/07/13 04:55:11;;;;;;;5.32;2.28;;;;;;;;;;5032123;28;20050;-82
2022/07/13 04:57:38;;;;;;;5.15;2.20;;;;;;;;;;5032081;28;20449;-82
2022/07/13 05:00:07;;;;;;;11.23;2.22;;;;;;;;;;5031489;28;20058;-82
2022/07/13 05:02:34;;;;;;;3.05;2.17;;;;;;;;;;5028596;28;20088;-82
2022/07/13 05:05:02;;;;;;;3.28;2.25;;;;;;;;;;5011916;28;20050;-81
2022/07/13 05:07:29;;;;;;;2.67;2.10;;;;;;;;;;5011239;28;20478;-81
2022/07/13 05:10:03;;;;;;;4.28;2.17;;;;;;;;;;5013685;28;20129;-82
2022/07/13 05:12:30;;;;;;;9.07;2.60;;;;;;;;;;5012117;28;20073;-82
2022/07/13 05:14:58;;;;;;;3.00;2.05;;;;;;;;;;5013051;28;20136;-81
2022/07/13 05:17:25;;;;;;;2.63;2.15;;;;;;;;;;5022808;28;20073;-81
2022/07/13 05:19:53;;;;;;;3.15;2.05;;;;;;;;;;5032956;28;20103;-81
2022/07/13 05:22:20;;;;;;;4.43;2.50;;;;;;;;;;5032276;28;20104;-81
2022/07/13 05:24:47;;;;;;;6.13;2.05;;;;;;;;;;5032849;28;20454;-81
2022/07/13 05:27:14;;;;;;;3.17;2.33;;;;;;;;;;5032581;28;20053;-81
2022/07/13 05:29:42;;;;;;;6.85;2.00;;;;;;;;;;5031553;28;20073;-81
2022/07/13 05:32:09;;;;;;;6.05;2.60;;;;;;;;;;5031811;28;20084;-81
2022/07/13 05:34:36;;;;;;;4.03;2.42;;;;;;;;;;5032844;28;20468;-81
2022/07/13 05:37:04;;;;;;;4.10;2.28;;;;;;;;;;5032801;28;20165;-81
2022/07/13 05:39:31;;;;;;;6.57;2.72;;;;;;;;;;5031355;28;20077;-81
2022/07/13 05:41:58;;;;;;;11.80;2.72;;;;;;;;;;5032374;28;20049;-81
2022/07/13 05:44:26;;;;;;;16.60;3.33;;;;;;;;;;5030412;28;20482;-82
2022/07/13 05:46:54;;;;;;;5.60;2.58;;;;;;;;;;5030951;28;20046;-81
2022/07/13 05:49:22;;;;;;;3.30;2.75;;;;;;;;;;5031110;28;20459;-81
2022/07/13 05:51:49;;;;;;;4.18;2.97;;;;;;;;;;5031092;28;20061;-81
2022/07/13 05:54:16;;;;;;;11.20;3.17;;;;;;;;;;5032238;28;20107;-81
2022/07/13 05:57:04;;;;;;;8.43;4.28;;;;;;;;;;5031297;28;20059;-81
2022/07/13 05:59:33;;;;;;;19.00;6.72;;;;;;;;;;5030945;28;20049;-81
2022/07/13 06:02:01;;;;;;;21.58;8.52;;;;;;;;;;5031056;28;20073;-81
2022/07/13 06:04:28;;;;;;;18.40;7.47;;;;;;;;;;5032947;28;20093;-81
2022/07/13 06:06:55;;;;;;;11.95;5.53;;;;;;;;;;5031443;28;20080;-81
2022/07/13 06:09:23;;;;;;;8.85;3.50;;;;;;;;;;5030829;28;20140;-81
2022/07/13 06:11:50;;;;;;;12.07;4.32;;;;;;;;;;5013664;28;20054;-81
2022/07/13 06:14:17;;;;;;;14.43;4.75;;;;;;;;;;5012635;28;20081;-81
2022/07/13 06:16:45;;;;;;;6.03;2.92;;;;;;;;;;5011202;28;20045;-81
2022/07/13 06:19:12;;;;;;;12.40;4.00;;;;;;;;;;5010213;28;20124;-81
2022/07/13 06:21:39;;;;;;;8.23;3.30;;;;;;;;;;5010274;28;20054;-81
2022/07/13 06:24:07;;;;;;;6.90;2.38;;;;;;;;;;5012331;28;20049;-81
2022/07/13 06:26:34;;;;;;;3.33;2.30;;;;;;;;;;5012235;28;20093;-81
2022/07/13 06:29:02;;;;;;;4.40;2.05;;;;;;;;;;5010502;28;20045;-81
2022/07/13 06:31:29;;;;;;;13.55;3.08;;;;;;;;;;5010778;28;20478;-82
2022/07/13 06:33:57;;;;;;;10.40;3.53;;;;;;;;;;5011108;28;20065;-81
2022/07/13 06:36:24;;;;;;;10.57;2.85;;;;;;;;;;5007982;28;20042;-81
2022/07/13 06:38:51;;;;;;;10.15;2.53;;;;;;;;;;5012240;28;20084;-82
2022/07/13 06:41:19;;;;;;;16.20;2.30;;;;;;;;;;5027542;28;20065;-81
2022/07/13 06:43:46;;;;;;;4.13;2.13;;;;;;;;;;5030694;28;20706;-82
2022/07/13 06:46:14;;;;;;;7.22;2.05;;;;;;;;;;5030565;28;20103;-81
2022/07/13 06:48:41;;;;;;;4.68;2.10;;;;;;;;;;5029903;28;20091;-81
2022/07/13 06:51:08;;;;;;;4.80;2.05;;;;;;;;;;5029114;28;20486;-81
2022/07/13 06:53:36;;;;;;;3.53;1.95;;;;;;;;;;5029841;28;20092;-81
2022/07/13 06:56:03;;;;;;;6.75;2.20;;;;;;;;;;5019114;28;20073;-81
2022/07/13 06:58:31;;;;;;;3.78;1.73;;;;;;;;;;5013077;28;20049;-83
2022/07/13 07:00:58;;;;;;;2.95;1.85;;;;;;;;;;5011150;28;20470;-82
2022/07/13 07:03:26;;;;;;;3.05;1.55;;;;;;;;;;5015699;28;20148;-82
2022/07/13 07:05:54;;;;;;;3.13;1.95;;;;;;;;;;5013069;28;20092;-82
2022/07/13 07:08:21;;;;;;;2.80;1.70;;;;;;;;;;5009845;28;20048;-81
2022/07/13 07:10:48;;;;;;;8.10;2.70;;;;;;;;;;5010774;28;20169;-83
2022/07/13 07:13:15;;;;;;;3.67;1.85;;;;;;;;;;5013491;28;20430;-76
2022/07/13 07:15:43;;;;;;;6.80;1.95;;;;;;;;;;5011284;28;20053;-77
2022/07/13 07:18:12;;;;;;;7.35;1.95;;;;;;;;;;5012560;28;20840;-76
2022/07/13 07:20:40;;;;;;;3.50;2.13;;;;;;;;;;5012701;28;20050;-76
2022/07/13 07:23:07;;;;;;;3.53;1.60;;;;;;;;;;5011756;28;20085;-77
2022/07/13 07:25:34;;;;;;;4.85;2.05;;;;;;;;;;5010837;28;20080;-76
2022/07/13 07:28:02;;;;;;;4.70;2.00;;;;;;;;;;5019576;28;20140;-77
2022/07/13 07:30:29;;;;;;;2.63;2.10;;;;;;;;;;5030863;28;20050;-77
2022/07/13 07:32:57;;;;;;;6.25;1.88;;;;;;;;;;5031021;28;20509;-77
2022/07/13 07:35:24;;;;;;;5.25;2.40;;;;;;;;;;5031776;28;20042;-77
2022/07/13 07:37:52;;;;;;;3.08;1.75;;;;;;;;;;5031802;28;20080;-77
2022/07/13 07:40:19;;;;;;;3.05;1.70;;;;;;;;;;5026797;28;20049;-77
2022/07/13 07:42:46;;;;;;;2.83;1.67;;;;;;;;;;5027657;28;20120;-76
2022/07/13 07:45:14;;;;;;;3.35;1.75;;;;;;;;;;5026891;28;20080;-76
2022/07/13 07:47:41;;;;;;;2.20;1.77;;;;;;;;;;5030499;28;20079;-76
2022/07/13 07:50:09;;;;;;;8.85;1.98;;;;;;;;;;5029545;28;20488;-77
2022/07/13 07:52:36;;;;;;;5.38;2.50;;;;;;;;;;5029716;28;20394;-76
2022/07/13 07:55:22;;;;;;;;;;;;;;;;;;5030575;28;20054;-76
2022/07/13 07:57:50;;;;;;;7.13;2.20;;;;;;;;;;5026278;28;19967;-77
2022/07/13 08:00:17;;;;;;;10.02;3.08;;;;;;;;;;5017182;28;20900;-77
2022/07/13 08:02:45;;;;;;;8.52;2.20;;;;;;;;;;5004777;28;20060;-76
2022/07/13 08:05:14;;;;;;;6.70;3.00;;;;;;;;;;5004999;28;20740;-76
2022/07/13 08:07:42;;;;;;;3.80;2.22;;;;;;;;;;5005531;28;20061;-76
2022/07/13 08:10:10;;;;;;;7.50;2.10;;;;;;;;;;5009576;28;20105;-76
2022/07/13 08:12:54;;;;;;;4.63;2.17;;;;;;;;;;5009445;28;20690;-76
2022/07/13 08:15:22;;;;;;;8.48;2.75;;;;;;;;;;5015263;28;20053;-76
2022/07/13 08:17:49;;;;;;;5.85;2.00;;;;;;;;;;5030141;28;20721;-77
2022/07/13 08:20:17;;;;;;;3.90;2.55;;;;;;;;;;5031868;28;20589;-76
2022/07/13 08:22:49;;;;;;;6.60;2.30;;;;;;;;;;5032260;28;20045;-77
2022/07/13 08:25:16;;;;;;;8.00;2.42;;;;;;;;;;5031371;28;20552;-76
2022/07/13 08:27:44;;;;;;;7.68;3.20;;;;;;;;;;5030374;28;20053;-76
2022/07/13 08:30:11;;;;;;;19.83;3.95;;;;;;;;;;5014874;28;20096;-76
2022/07/13 08:32:39;;;;;;;4.93;2.90;;;;;;;;;;5010746;28;20046;-76
2022/07/13 08:40:42;;;;;;;9.05;2.60;;;;;;;;;;5011618;28;20053;-76
2022/07/13 08:43:10;;;;;;;6.82;1.92;;;;;;;;;;5011687;28;20082;-77
2022/07/13 08:45:37;;;;;;;5.88;2.50;;;;;;;;;;5011792;28;20525;-76
2022/07/13 08:48:09;;;;;;;6.13;2.53;;;;;;;;;;5010639;28;20152;-76
2022/07/13 08:50:37;;;;;;;2.97;2.40;;;;;;;;;;5011060;28;20104;-76
2022/07/13 08:53:07;;;;;;;5.75;2.22;;;;;;;;;;5009852;28;20077;-77
2022/07/13 08:55:36;;;;;;;6.85;2.28;;;;;;;;;;5012375;28;20082;-76
2022/07/13 08:58:03;;;;;;;3.90;2.20;;;;;;;;;;5029137;28;20081;-77
2022/07/13 09:00:31;;;;;;;3.08;2.17;;;;;;;;;;5028493;28;20080;-77
2022/07/13 09:02:58;;;;;;;2.58;1.52;;;;;;;;;;5028970;28;20755;-77
2022/07/13 09:05:31;;;;;;;6.43;1.80;;;;;;;;;;5028474;28;20053;-77
2022/07/13 09:08:03;;;;;;;2.53;1.60;;;;;;;;;;5023286;28;20557;-78
2022/07/13 09:10:30;;;;;;;5.75;1.75;;;;;;;;;;5008084;28;20548;-77
2022/07/13 09:12:58;;;;;;;3.30;1.70;;;;;;;;;;5007372;28;20869;-77
2022/07/13 09:15:31;;;;;;;3.88;2.20;;;;;;;;;;5007432;28;20080;-76
2022/07/13 09:17:59;;;;;;;5.88;1.80;;;;;;;;;;5007308;28;20059;-76
2022/07/13 09:20:26;;;;;;;5.32;1.48;;;;;;;;;;5006401;28;20123;-77
2022/07/13 09:23:02;;;;;;;2.28;1.45;;;;;;;;;;5010316;28;20053;-76
2022/07/13 09:25:30;;;;;;;4.45;1.50;;;;;;;;;;5027841;28;20048;-76
2022/07/13 09:28:01;;;;;;;3.13;1.42;;;;;;;;;;5028403;28;20057;-77
2022/07/13 09:30:28;;;;;;;3.22;1.48;;;;;;;;;;5029201;28;20073;-77
2022/07/13 09:32:57;;;;;;;3.40;1.58;;;;;;;;;;5029572;28;20068;-77
2022/07/13 09:35:39;;;;;;;2.80;1.92;;;;;;;;;;5029572;28;20492;-77
2022/07/13 09:38:07;;;;;;;4.13;1.85;;;;;;;;;;5029295;28;20042;-77
2022/07/13 09:40:34;;;;;;;6.15;2.10;;;;;;;;;;5013106;28;20820;-77
2022/07/13 09:48:33;;;;;;;6.07;1.70;;;;;;;;;;5010359;28;20129;-77
2022/07/13 09:51:01;;;;;;;8.13;1.95;;;;;;;;;;5010422;28;20050;-77
2022/07/13 09:53:29;;;;;;;2.53;1.80;;;;;;;;;;5010388;28;20096;-77
2022/07/13 09:56:03;;;;;;;8.32;2.20;;;;;;;;;;5009810;28;20057;-77
2022/07/13 09:58:32;;;;;;;9.40;2.20;;;;;;;;;;5010641;28;20081;-77
2022/07/13 10:01:00;;;;;;;6.30;2.70;;;;;;;;;;5009031;28;20116;-77
2022/07/13 10:03:31;;;;;;;2.60;1.95;;;;;;;;;;5008180;28;20096;-77
2022/07/13 10:06:00;;;;;;;6.82;2.20;;;;;;;;;;5009990;28;20050;-77
2022/07/13 10:08:28;;;;;;;5.00;2.40;;;;;;;;;;5004229;28;20172;-77
2022/07/13 10:10:55;;;;;;;3.88;2.08;;;;;;;;;;5005293;28;20351;-77
2022/07/13 10:13:23;;;;;;;3.88;1.95;;;;;;;;;;5008458;28;20050;-77
2022/07/13 10:16:00;;;;;;;6.70;2.33;;;;;;;;;;5009697;28;20050;-78
2022/07/13 10:18:52;;;;;;;2.90;2.00;;;;;;;;;;5003227;28;20073;-83
2022/07/13 10:21:48;;;;;;;6.65;2.72;;;;;;;;;;5004611;28;20181;-75
2022/07/13 10:24:20;;;;;;;6.45;2.50;;;;;;;;;;4996534;28;20882;-76
2022/07/13 10:26:49;;;;;;;4.28;2.20;;;;;;;;;;5005984;28;20081;-76
2022/07/13 10:29:20;;;;;;;4.03;2.63;;;;;;;;;;5004646;28;20053;-77
2022/07/13 10:31:59;;;;;;;3.92;2.45;;;;;;;;;;5004143;28;20125;-76
2022/07/13 10:34:46;;;;;;;4.85;2.40;;;;;;;;;;5021428;28;20064;-77
2022/07/13 10:37:13;;;;;;;4.05;2.45;;;;;;;;;;4999896;28;20073;-76
2022/07/13 10:40:00;;;;;;;3.75;2.45;;;;;;;;;;4998631;28;20065;-77
2022/07/13 10:42:28;;;;;;;6.07;2.72;;;;;;;;;;5003659;28;20046;-76
2022/07/13 10:44:56;;;;;;;4.72;2.40;;;;;;;;;;5016311;28;20121;-76
2022/07/13 10:47:44;;;;;;;6.07;2.67;;;;;;;;;;5002748;28;20120;-77
2022/07/13 10:50:22;;;;;;;7.35;2.38;;;;;;;;;;5002507;28;20391;-77
2022/07/13 10:52:50;;;;;;;4.28;2.50;;;;;;;;;;5003076;28;20093;-77
2022/07/13 10:55:45;;;;;;;9.32;3.13;;;;;;;;;;5005395;28;20073;-76
2022/07/13 10:58:33;;;;;;;4.50;2.42;;;;;;;;;;5008841;28;20038;-77
2022/07/13 11:01:01;;;;;;;3.38;2.42;;;;;;;;;;5026087;28;20065;-77
2022/07/13 11:03:38;;;;;;;5.57;2.50;;;;;;;;;;5008823;28;20773;-77
2022/07/13 11:06:12;;;;;;;6.88;2.60;;;;;;;;;;5008234;28;20142;-76
2022/07/13 11:08:40;;;;;;;4.20;2.63;;;;;;;;;;4988688;28;20046;-77
2022/07/13 11:11:13;;;;;;;5.05;3.00;;;;;;;;;;5004973;28;20108;-77
2022/07/13 11:13:42;;;;;;;7.28;3.20;;;;;;;;;;5017995;28;20050;-77
2022/07/13 11:16:09;;;;;;;8.00;3.63;;;;;;;;;;5023873;28;20058;-77
2022/07/13 11:18:38;;;;;;;6.80;3.15;;;;;;;;;;5007250;28;20052;-77
2022/07/13 11:21:08;;;;;;;4.57;3.03;;;;;;;;;;4998040;28;20058;-77
2022/07/13 11:26:51;;;;;;;10.55;2.95;;;;;;;;;;5003783;28;20085;-77
2022/07/13 11:29:18;;;;;;;3.30;2.75;;;;;;;;;;5006632;28;20137;-77
2022/07/13 11:31:56;;;;;;;3.92;3.13;;;;;;;;;;5021243;28;20073;-77
2022/07/13 11:34:27;;;;;;;8.38;2.63;;;;;;;;;;5006909;28;20052;-77
2022/07/13 11:37:01;;;;;;;7.53;4.13;;;;;;;;;;5006272;28;20138;-77
2022/07/13 11:39:30;;;;;;;5.95;3.17;;;;;;;;;;5005199;28;20054;-77
2022/07/13 11:41:58;;;;;;;3.05;2.75;;;;;;;;;;5003816;28;20196;-77
2022/07/13 11:44:29;;;;;;;4.18;2.67;;;;;;;;;;5006223;28;20149;-77
2022/07/13 11:46:59;;;;;;;4.57;2.80;;;;;;;;;;5011302;28;20086;-76
2022/07/13 11:49:27;;;;;;;7.53;3.20;;;;;;;;;;5009292;28;20133;-76
2022/07/13 11:51:55;;;;;;;4.10;2.97;;;;;;;;;;5008764;28;20483;-77
2022/07/13 11:54:23;;;;;;;3.83;3.10;;;;;;;;;;5010983;28;20081;-76
2022/07/13 11:56:51;;;;;;;5.10;2.80;;;;;;;;;;5008780;28;20042;-76
2022/07/13 11:59:39;;;;;;;9.05;2.85;;;;;;;;;;5007199;28;20299;-76
2022/07/13 12:02:10;;;;;;;4.85;2.72;;;;;;;;;;5023607;28;20136;-76
2022/07/13 12:04:46;;;;;;;3.65;2.92;;;;;;;;;;5029253;28;20394;-76
2022/07/13 12:07:17;;;;;;;6.25;2.97;;;;;;;;;;5013351;28;20138;-77
2022/07/13 12:09:52;;;;;;;7.78;2.33;;;;;;;;;;5009111;28;20077;-77
2022/07/13 12:12:23;;;;;;;3.92;2.15;;;;;;;;;;5004942;28;20085;-76
2022/07/13 12:14:51;;;;;;;5.40;2.38;;;;;;;;;;5001415;28;20053;-76
2022/07/13 12:17:19;;;;;;;5.18;2.47;;;;;;;;;;5006674;28;20058;-76
2022/07/13 12:19:47;;;;;;;6.22;2.63;;;;;;;;;;5010290;28;20081;-74
2022/07/13 12:22:14;;;;;;;4.45;2.40;;;;;;;;;;5026458;28;20455;-76
2022/07/13 12:24:45;;;;;;;4.88;2.47;;;;;;;;;;5008299;28;20936;-76
2022/07/13 12:27:25;;;;;;;2.10;1.90;;;;;;;;;;5002107;28;20056;-76
2022/07/13 12:30:06;;;;;;;5.75;2.53;;;;;;;;;;5016082;28;20119;-78
2022/07/13 12:32:55;;;;;;;9.00;2.70;;;;;;;;;;5006110;28;20050;-81
2022/07/13 12:35:42;;;;;;;5.78;2.80;;;;;;;;;;5027751;28;20088;-76
2022/07/13 12:38:12;;;;;;;7.00;2.90;;;;;;;;;;4986268;28;20827;-77
2022/07/13 12:40:51;;;;;;;6.22;2.92;;;;;;;;;;5010764;28;20060;-76
2022/07/13 12:43:19;;;;;;;7.45;3.22;;;;;;;;;;5003604;28;20572;-77
2022/07/13 12:45:52;;;;;;;9.40;2.88;;;;;;;;;;5012874;28;20081;-76
2022/07/13 12:48:22;;;;;;;5.22;2.88;;;;;;;;;;5007633;28;20155;-77
2022/07/13 12:51:03;;;;;;;7.35;3.13;;;;;;;;;;5005187;28;20050;-76
2022/07/13 12:53:49;;;;;;;6.40;2.42;;;;;;;;;;5007365;28;20069;-76
2022/07/13 12:56:17;;;;;;;7.22;2.97;;;;;;;;;;5006240;28;20127;-76
2022/07/13 12:58:50;;;;;;;12.48;2.65;;;;;;;;;;5006456;28;20140;-76
2022/07/13 13:01:31;;;;;;;8.50;2.92;;;;;;;;;;5004773;28;20042;-76
2022/07/13 13:03:59;;;;;;;10.23;3.25;;;;;;;;;;5007438;28;20099;-74
2022/07/13 13:06:32;;;;;;;6.97;3.13;;;;;;;;;;5004102;28;20546;-74
2022/07/13 13:09:09;;;;;;;10.43;2.65;;;;;;;;;;5003785;28;20730;-74
2022/07/13 13:11:37;;;;;;;8.50;2.75;;;;;;;;;;5004084;28;20132;-74
2022/07/13 13:14:04;;;;;;;10.85;3.08;;;;;;;;;;5007671;28;20483;-74
2022/07/13 13:16:32;;;;;;;11.50;3.13;;;;;;;;;;5005185;28;20101;-74
2022/07/13 13:19:00;;;;;;;11.65;2.88;;;;;;;;;;5006022;28;20050;-73
2022/07/13 13:21:28;;;;;;;8.75;2.97;;;;;;;;;;5005203;28;20100;-74
2022/07/13 13:23:55;;;;;;;7.72;2.60;;;;;;;;;;5005816;28;20109;-75
2022/07/13 13:26:22;;;;;;;13.63;3.15;;;;;;;;;;4996900;28;20050;-75
2022/07/13 13:31:48;;;;;;;7.57;2.75;;;;;;;;;;5005989;28;20077;-75
2022/07/13 13:34:15;;;;;;;4.85;2.58;;;;;;;;;;5005469;28;20781;-74
2022/07/13 13:36:46;;;;;;;4.40;2.75;;;;;;;;;;5005323;28;20502;-75
2022/07/13 13:39:14;;;;;;;4.47;2.65;;;;;;;;;;5005022;28;20054;-75
2022/07/13 13:41:41;;;;;;;8.43;2.80;;;;;;;;;;5005104;28;20100;-75
2022/07/13 13:44:08;;;;;;;7.28;3.20;;;;;;;;;;5004450;28;20129;-76
2022/07/13 13:46:36;;;;;;;3.67;3.28;;;;;;;;;;5007101;28;20136;-75
2022/07/13 13:49:03;;;;;;;4.28;2.80;;;;;;;;;;5007526;28;20103;-76
2022/07/13 13:51:31;;;;;;;3.92;2.83;;;;;;;;;;5006941;28;20050;-76
2022/07/13 13:54:18;;;;;;;6.65;3.17;;;;;;;;;;5003460;28;20050;-75
2022/07/13 13:56:45;;;;;;;8.43;2.75;;;;;;;;;;5004504;28;20085;-75
2022/07/13 13:59:12;;;;;;;4.40;3.10;;;;;;;;;;5003775;28;20104;-75
2022/07/13 14:01:40;;;;;;;7.25;2.75;;;;;;;;;;5001754;28;20136;-75
2022/07/13 14:04:14;;;;;;;7.00;2.90;;;;;;;;;;5001221;28;20052;-75
2022/07/13 14:06:42;;;;;;;6.22;3.17;;;;;;;;;;5001292;28;20085;-75
2022/07/13 14:09:10;;;;;;;5.35;3.60;;;;;;;;;;5003270;28;20453;-75
2022/07/13 14:11:38;;;;;;;5.40;3.33;;;;;;;;;;5002146;28;20070;-75
2022/07/13 14:14:06;;;;;;;5.68;2.72;;;;;;;;;;5006777;28;20053;-78
2022/07/13 14:16:34;;;;;;;8.80;3.17;;;;;;;;;;5006570;28;20155;-79
2022/07/13 14:19:02;;;;;;;7.75;2.58;;;;;;;;;;5005602;28;20042;-76
2022/07/13 14:21:29;;;;;;;5.00;2.63;;;;;;;;;;4999536;28;20050;-76
2022/07/13 14:23:56;;;;;;;5.97;2.83;;;;;;;;;;5003080;28;20049;-76
2022/07/13 14:26:44;;;;;;;3.90;2.25;;;;;;;;;;5002145;28;20046;-76
2022/07/13 14:29:21;;;;;;;3.58;2.67;;;;;;;;;;5003069;28;20107;-75
2022/07/13 14:31:49;;;;;;;5.57;2.72;;;;;;;;;;5004176;28;20180;-76
2022/07/13 14:34:36;;;;;;;13.48;3.15;;;;;;;;;;5005247;28;20049;-77
2022/07/13 14:37:06;;;;;;;5.70;2.60;;;;;;;;;;5012801;28;20080;-82
2022/07/13 14:39:37;;;;;;;3.92;2.45;;;;;;;;;;5015073;28;20050;-80
2022/07/13 14:42:05;;;;;;;4.53;2.67;;;;;;;;;;5009658;28;20089;-80
2022/07/13 14:44:32;;;;;;;11.15;2.75;;;;;;;;;;5008931;28;20073;-81
2022/07/13 14:47:00;;;;;;;5.40;3.22;;;;;;;;;;5007053;28;20049;-81
2022/07/13 14:49:27;;;;;;;9.15;3.30;;;;;;;;;;5012144;28;20124;-81
2022/07/13 14:52:15;;;;;;;11.55;3.38;;;;;;;;;;5009004;28;20056;-81
2022/07/13 14:54:43;;;;;;;9.93;2.63;;;;;;;;;;5010166;28;20045;-82
2022/07/13 14:57:10;;;;;;;5.63;2.60;;;;;;;;;;5007535;28;20458;-81
2022/07/13 14:59:38;;;;;;;4.25;2.92;;;;;;;;;;5011943;28;20072;-81
2022/07/13 15:02:05;;;;;;;9.95;3.10;;;;;;;;;;5008974;28;20437;-82
2022/07/13 15:04:34;;;;;;;10.82;2.75;;;;;;;;;;5007412;28;20153;-80
2022/07/13 15:07:04;;;;;;;4.72;3.28;;;;;;;;;;5009242;28;20108;-81
2022/07/13 15:09:32;;;;;;;6.57;2.80;;;;;;;;;;5007595;28;20042;-84
2022/07/13 15:12:19;;;;;;;2.95;2.67;;;;;;;;;;5005937;28;20133;-81
2022/07/13 15:14:47;;;;;;;3.40;2.67;;;;;;;;;;5010113;28;20058;-81
2022/07/13 15:17:29;;;;;;;13.60;3.80;;;;;;;;;;5007909;28;20102;-81